Time;durP1;ratioP1;P1;durP2;ratioP2;P2;SDS_P1;SDS_P2;PMS_P1;PMS_P2;Temp;Humidity;BMP_temperature;BMP_pressure;BME280_temperature;BME280_humidity;BME280_pressure;Samples;Min_cycle;Max_cycle;Signal;HPM_P1;HPM_P2
2024/04/08 00:02:14;;;;;;;;;;;14.40;99.90;;;;;;5505738;25;20319;-63
2024/04/08 00:04:42;;;;;;;;;;;14.50;99.90;;;;;;5506067;25;21145;-63
2024/04/08 00:07:09;;;;;;;;;;;14.60;99.90;;;;;;5515790;25;19933;-63
2024/04/08 00:09:37;;;;;;;;;;;14.50;99.90;;;;;;5504009;25;19934;-63
2024/04/08 00:12:04;;;;;;;;;;;14.50;99.90;;;;;;5504193;25;19927;-63
2024/04/08 00:14:31;;;;;;;;;;;14.50;99.90;;;;;;5502412;26;20430;-63
2024/04/08 00:16:58;;;;;;;;;;;14.40;99.90;;;;;;5505884;25;19927;-63
2024/04/08 00:19:25;;;;;;;;;;;14.50;99.90;;;;;;5502913;25;19927;-63
2024/04/08 00:21:51;;;;;;;;;;;14.40;99.90;;;;;;5498659;26;20282;-63
2024/04/08 00:24:18;;;;;;;;;;;14.40;99.90;;;;;;5506358;25;20400;-63
2024/04/08 00:26:45;;;;;;;;;;;14.40;99.90;;;;;;5502853;26;20359;-63
2024/04/08 00:29:12;;;;;;;;;;;14.40;99.90;;;;;;5513464;25;20352;-63
2024/04/08 00:31:39;;;;;;;;;;;14.40;99.90;;;;;;5502179;25;19934;-63
2024/04/08 00:34:06;;;;;;;;;;;14.40;99.90;;;;;;5532268;25;19934;-63
2024/04/08 00:36:32;;;;;;;;;;;14.40;99.90;;;;;;5526204;25;19926;-63
2024/04/08 00:38:59;;;;;;;;;;;14.30;99.90;;;;;;5505953;25;19927;-63
2024/04/08 00:41:26;;;;;;;;;;;14.30;99.90;;;;;;5526264;25;20374;-63
2024/04/08 00:43:53;;;;;;;;;;;14.30;99.90;;;;;;5498937;25;19933;-63
2024/04/08 00:46:21;;;;;;;;;;;14.30;99.90;;;;;;5510947;25;19934;-63
2024/04/08 00:48:48;;;;;;;;;;;14.30;99.90;;;;;;5509371;25;19928;-64
2024/04/08 00:51:15;;;;;;;;;;;14.30;99.90;;;;;;5510387;25;19927;-63
2024/04/08 00:53:42;;;;;;;;;;;14.30;99.90;;;;;;5504079;25;20381;-63
2024/04/08 00:56:09;;;;;;;;;;;14.30;99.90;;;;;;5503437;25;20297;-62
2024/04/08 00:58:38;;;;;;;;;;;14.30;99.90;;;;;;5513324;25;20234;-63
2024/04/08 01:01:08;;;;;;;;;;;14.30;99.90;;;;;;5498593;25;19927;-64
2024/04/08 01:03:36;;;;;;;;;;;14.20;99.90;;;;;;5518818;25;20369;-63
2024/04/08 01:06:03;;;;;;;;;;;14.20;99.90;;;;;;5512813;25;19928;-63
2024/04/08 01:08:32;;;;;;;;;;;14.20;99.90;;;;;;5512301;25;19928;-63
2024/04/08 01:10:59;;;;;;;;;;;14.20;99.90;;;;;;5511760;25;20427;-63
2024/04/08 01:13:26;;;;;;;;;;;14.10;99.90;;;;;;5495317;26;19931;-64
2024/04/08 01:15:53;;;;;;;;;;;14.10;99.90;;;;;;5503599;26;19927;-63
2024/04/08 01:18:20;;;;;;;;;;;14.10;99.90;;;;;;5504699;26;19928;-62
2024/04/08 01:20:47;;;;;;;;;;;14.10;99.90;;;;;;5497443;25;19934;-63
2024/04/08 01:23:14;;;;;;;;;;;14.10;99.90;;;;;;5506294;25;19933;-63
2024/04/08 01:25:41;;;;;;;;;;;14.10;99.90;;;;;;5491514;25;19935;-63
2024/04/08 01:28:08;;;;;;;;;;;14.10;99.90;;;;;;5503095;26;19934;-63
2024/04/08 01:30:35;;;;;;;;;;;14.10;99.90;;;;;;5483661;26;19928;-61
2024/04/08 01:33:02;;;;;;;;;;;14.20;99.90;;;;;;5518384;25;19927;-63
2024/04/08 01:35:29;;;;;;;;;;;14.10;99.90;;;;;;5512638;26;19934;-63
2024/04/08 01:37:55;;;;;;;;;;;14.00;99.90;;;;;;5528838;25;19926;-63
2024/04/08 01:40:22;;;;;;;;;;;14.10;99.90;;;;;;5496052;25;19927;-63
2024/04/08 01:42:50;;;;;;;;;;;14.10;99.90;;;;;;5503972;25;19928;-63
2024/04/08 01:45:17;;;;;;;;;;;14.10;99.90;;;;;;5505641;25;19933;-62
2024/04/08 01:47:43;;;;;;;;;;;14.10;99.90;;;;;;5516576;25;19927;-63
2024/04/08 01:50:10;;;;;;;;;;;14.10;99.90;;;;;;5492616;25;19940;-62
2024/04/08 01:52:37;;;;;;;;;;;14.00;99.90;;;;;;5501225;25;20367;-63
2024/04/08 01:55:04;;;;;;;;;;;14.00;99.90;;;;;;5523424;25;19927;-63
2024/04/08 01:57:31;;;;;;;;;;;14.00;99.90;;;;;;5499663;25;19934;-62
2024/04/08 01:59:58;;;;;;;;;;;13.90;99.90;;;;;;5511880;25;19928;-63
2024/04/08 02:02:25;;;;;;;;;;;13.90;99.90;;;;;;5506461;25;19941;-63
2024/04/08 02:04:51;;;;;;;;;;;13.90;99.90;;;;;;5509929;25;19941;-62
2024/04/08 02:07:18;;;;;;;;;;;14.00;99.90;;;;;;5503319;25;19934;-62
2024/04/08 02:09:45;;;;;;;;;;;13.90;99.90;;;;;;5497457;25;19927;-63
2024/04/08 02:12:13;;;;;;;;;;;14.00;99.90;;;;;;5508027;26;20211;-63
2024/04/08 02:14:40;;;;;;;;;;;14.00;99.90;;;;;;5509060;25;19947;-63
2024/04/08 02:17:07;;;;;;;;;;;14.00;99.90;;;;;;5524909;25;20377;-63
2024/04/08 02:19:34;;;;;;;;;;;14.00;99.90;;;;;;5492416;26;19934;-63
2024/04/08 02:22:00;;;;;;;;;;;14.00;99.90;;;;;;5505665;25;20047;-63
2024/04/08 02:24:27;;;;;;;;;;;14.00;99.90;;;;;;5495704;26;20277;-63
2024/04/08 02:26:54;;;;;;;;;;;13.90;99.90;;;;;;5510124;25;19928;-63
2024/04/08 02:29:21;;;;;;;;;;;13.90;99.90;;;;;;5507226;25;19934;-63
2024/04/08 02:31:48;;;;;;;;;;;13.80;99.90;;;;;;5525874;25;19926;-63
2024/04/08 02:34:15;;;;;;;;;;;13.90;99.90;;;;;;5521668;25;19934;-62
2024/04/08 02:36:43;;;;;;;;;;;13.90;99.90;;;;;;5518227;25;20272;-63
2024/04/08 02:39:10;;;;;;;;;;;13.90;99.90;;;;;;5536517;25;20290;-63
2024/04/08 02:41:37;;;;;;;;;;;13.80;99.90;;;;;;5534875;25;19927;-63
2024/04/08 02:44:04;;;;;;;;;;;13.90;99.90;;;;;;5523199;25;19928;-63
2024/04/08 02:46:31;;;;;;;;;;;13.80;99.90;;;;;;5510181;25;19927;-63
2024/04/08 02:48:58;;;;;;;;;;;13.80;99.90;;;;;;5510559;25;19927;-63
2024/04/08 02:51:25;;;;;;;;;;;13.80;99.90;;;;;;5511130;26;19928;-63
2024/04/08 02:53:52;;;;;;;;;;;13.80;99.90;;;;;;5505995;26;20376;-63
2024/04/08 02:56:19;;;;;;;;;;;13.80;99.90;;;;;;5520473;25;19943;-63
2024/04/08 02:58:46;;;;;;;;;;;13.80;99.90;;;;;;5528591;25;20374;-63
2024/04/08 03:01:14;;;;;;;;;;;13.80;99.90;;;;;;5522766;25;19927;-63
2024/04/08 03:03:41;;;;;;;;;;;13.80;99.90;;;;;;5536050;25;19927;-63
2024/04/08 03:06:12;;;;;;;;;;;13.80;99.90;;;;;;5447756;26;19935;-63
2024/04/08 03:08:40;;;;;;;;;;;13.90;99.90;;;;;;5501393;25;20315;-63
2024/04/08 03:11:07;;;;;;;;;;;13.90;99.90;;;;;;5492546;26;19928;-62
2024/04/08 03:13:35;;;;;;;;;;;13.80;99.90;;;;;;5489378;25;20149;-63
2024/04/08 03:16:02;;;;;;;;;;;13.80;99.90;;;;;;5529561;25;19928;-63
2024/04/08 03:18:29;;;;;;;;;;;13.80;99.90;;;;;;5526339;25;20375;-62
2024/04/08 03:20:56;;;;;;;;;;;13.90;99.90;;;;;;5485466;25;19935;-63
2024/04/08 03:23:23;;;;;;;;;;;13.80;99.90;;;;;;5503451;25;19961;-62
2024/04/08 03:26:00;;;;;;;;;;;13.90;99.90;;;;;;5473141;26;19928;-63
2024/04/08 03:28:27;;;;;;;;;;;13.80;99.90;;;;;;5494412;25;20374;-63
2024/04/08 03:30:54;;;;;;;;;;;13.80;99.90;;;;;;5492423;25;19934;-62
2024/04/08 03:33:21;;;;;;;;;;;13.90;99.90;;;;;;5489892;26;20507;-63
2024/04/08 03:35:48;;;;;;;;;;;13.80;99.90;;;;;;5515572;25;19934;-62
2024/04/08 03:38:15;;;;;;;;;;;13.80;99.90;;;;;;5526472;25;19927;-62
2024/04/08 03:40:43;;;;;;;;;;;13.80;99.90;;;;;;5548944;25;19927;-63
2024/04/08 03:43:10;;;;;;;;;;;13.80;99.90;;;;;;5534665;25;19933;-62
2024/04/08 03:45:38;;;;;;;;;;;13.80;99.90;;;;;;5549796;25;19927;-62
2024/04/08 03:48:05;;;;;;;;;;;13.80;99.90;;;;;;5523407;25;19933;-62
2024/04/08 03:50:35;;;;;;;;;;;13.70;99.90;;;;;;5511428;25;20264;-62
2024/04/08 03:53:02;;;;;;;;;;;13.70;99.90;;;;;;5536397;25;19927;-63
2024/04/08 03:55:30;;;;;;;;;;;13.80;99.90;;;;;;5513960;25;19931;-62
2024/04/08 03:57:57;;;;;;;;;;;13.80;99.90;;;;;;5485030;26;20255;-63
2024/04/08 04:00:24;;;;;;;;;;;13.70;99.90;;;;;;5511426;25;19927;-63
2024/04/08 04:02:51;;;;;;;;;;;13.70;99.90;;;;;;5495395;25;19934;-63
2024/04/08 04:05:18;;;;;;;;;;;13.80;99.90;;;;;;5514745;25;19927;-63
2024/04/08 04:07:45;;;;;;;;;;;13.80;99.90;;;;;;5527254;25;19934;-63
2024/04/08 04:10:12;;;;;;;;;;;13.80;99.90;;;;;;5518893;25;19934;-63
2024/04/08 04:12:39;;;;;;;;;;;13.80;99.90;;;;;;5506896;26;19927;-63
2024/04/08 04:15:12;;;;;;;;;;;13.80;99.90;;;;;;5513016;25;19934;-63
2024/04/08 04:17:39;;;;;;;;;;;13.90;99.90;;;;;;5529233;25;19935;-63
2024/04/08 04:20:09;;;;;;;;;;;13.80;99.90;;;;;;5518287;25;19934;-63
2024/04/08 04:22:36;;;;;;;;;;;13.80;99.90;;;;;;5527851;25;19933;-63
2024/04/08 04:25:03;;;;;;;;;;;13.80;99.90;;;;;;5495473;26;20369;-63
2024/04/08 04:27:30;;;;;;;;;;;13.80;99.90;;;;;;5500360;25;19934;-63
2024/04/08 04:29:57;;;;;;;;;;;13.80;99.90;;;;;;5503404;25;20300;-63
2024/04/08 04:32:24;;;;;;;;;;;13.80;99.90;;;;;;5516132;25;19943;-63
2024/04/08 04:34:52;;;;;;;;;;;13.70;99.90;;;;;;5503707;25;19935;-63
2024/04/08 04:37:19;;;;;;;;;;;13.80;99.90;;;;;;5533989;25;19926;-64
2024/04/08 04:39:46;;;;;;;;;;;13.80;99.90;;;;;;5526087;25;20386;-63
2024/04/08 04:42:13;;;;;;;;;;;13.80;99.90;;;;;;5544403;25;20383;-61
2024/04/08 04:44:40;;;;;;;;;;;13.80;99.90;;;;;;5516342;25;19927;-63
2024/04/08 04:47:07;;;;;;;;;;;13.70;99.90;;;;;;5524334;25;20282;-63
2024/04/08 04:49:34;;;;;;;;;;;13.70;99.90;;;;;;5526065;25;19928;-63
2024/04/08 04:52:01;;;;;;;;;;;13.70;99.90;;;;;;5543073;25;19926;-63
2024/04/08 04:54:27;;;;;;;;;;;13.80;99.90;;;;;;5486691;25;20343;-63
2024/04/08 04:56:54;;;;;;;;;;;13.70;99.90;;;;;;5528367;25;19927;-63
2024/04/08 04:59:21;;;;;;;;;;;13.80;99.90;;;;;;5536361;25;20278;-63
2024/04/08 05:01:48;;;;;;;;;;;13.80;99.90;;;;;;5541622;25;19941;-63
2024/04/08 05:04:15;;;;;;;;;;;13.70;99.90;;;;;;5535708;25;19933;-63
2024/04/08 05:06:42;;;;;;;;;;;13.80;99.90;;;;;;5539895;25;19926;-63
2024/04/08 05:09:09;;;;;;;;;;;13.70;99.90;;;;;;5538116;25;20273;-63
2024/04/08 05:11:36;;;;;;;;;;;13.80;99.90;;;;;;5541697;25;20350;-63
2024/04/08 05:14:03;;;;;;;;;;;13.80;99.90;;;;;;5540477;25;20349;-64
2024/04/08 05:16:31;;;;;;;;;;;13.80;99.90;;;;;;5536839;25;19927;-64
2024/04/08 05:18:57;;;;;;;;;;;13.80;99.90;;;;;;5538673;25;19930;-63
2024/04/08 05:21:24;;;;;;;;;;;13.70;99.90;;;;;;5536609;25;20274;-64
2024/04/08 05:23:51;;;;;;;;;;;13.80;99.90;;;;;;5541304;25;20777;-63
2024/04/08 05:26:18;;;;;;;;;;;13.80;99.90;;;;;;5541633;25;19927;-64
2024/04/08 05:28:45;;;;;;;;;;;13.70;99.90;;;;;;5540212;25;19927;-64
2024/04/08 05:31:12;;;;;;;;;;;13.70;99.90;;;;;;5537333;25;20269;-64
2024/04/08 05:33:39;;;;;;;;;;;13.80;99.90;;;;;;5537967;25;19933;-63
2024/04/08 05:36:06;;;;;;;;;;;13.70;99.90;;;;;;5538306;25;19927;-64
2024/04/08 05:38:33;;;;;;;;;;;13.70;99.90;;;;;;5541618;25;19927;-63
2024/04/08 05:41:03;;;;;;;;;;;13.70;99.90;;;;;;5537684;25;19927;-64
2024/04/08 05:43:31;;;;;;;;;;;13.60;99.90;;;;;;5539266;25;19938;-64
2024/04/08 05:45:58;;;;;;;;;;;13.70;99.90;;;;;;5538751;25;20383;-64
2024/04/08 05:48:25;;;;;;;;;;;13.70;99.90;;;;;;5541309;25;19927;-64
2024/04/08 05:50:51;;;;;;;;;;;13.80;99.90;;;;;;5534523;25;19947;-63
2024/04/08 05:53:18;;;;;;;;;;;13.80;99.90;;;;;;5539497;25;20316;-64
2024/04/08 05:55:45;;;;;;;;;;;13.70;99.90;;;;;;5536366;25;19927;-64
2024/04/08 05:58:12;;;;;;;;;;;13.80;99.90;;;;;;5540378;25;19927;-64
2024/04/08 06:00:39;;;;;;;;;;;13.70;99.90;;;;;;5537467;25;20025;-64
2024/04/08 06:03:09;;;;;;;;;;;13.80;99.90;;;;;;5538833;25;20358;-64
2024/04/08 06:05:40;;;;;;;;;;;13.90;99.90;;;;;;5540202;25;20289;-63
2024/04/08 06:08:06;;;;;;;;;;;14.00;99.90;;;;;;5538527;25;19933;-63
2024/04/08 06:10:36;;;;;;;;;;;14.00;99.90;;;;;;5536078;25;19935;-64
2024/04/08 06:13:03;;;;;;;;;;;14.10;99.90;;;;;;5536763;25;19927;-63
2024/04/08 06:15:31;;;;;;;;;;;14.20;99.90;;;;;;5537654;25;19933;-63
2024/04/08 06:17:59;;;;;;;;;;;14.30;99.90;;;;;;5541580;25;19933;-63
2024/04/08 06:20:27;;;;;;;;;;;14.40;99.90;;;;;;5537123;25;19928;-63
2024/04/08 06:22:54;;;;;;;;;;;14.50;99.90;;;;;;5541585;25;19933;-64
2024/04/08 06:25:21;;;;;;;;;;;14.50;99.90;;;;;;5541946;25;20273;-64
2024/04/08 06:27:47;;;;;;;;;;;14.50;99.90;;;;;;5539276;25;20472;-64
2024/04/08 06:30:14;;;;;;;;;;;14.50;99.90;;;;;;5504674;25;19933;-63
2024/04/08 06:32:43;;;;;;;;;;;14.50;99.90;;;;;;5537846;25;19927;-64
2024/04/08 06:35:10;;;;;;;;;;;14.50;99.90;;;;;;5532869;25;19927;-63
2024/04/08 06:37:37;;;;;;;;;;;14.50;99.90;;;;;;5537984;25;19927;-63
2024/04/08 06:40:04;;;;;;;;;;;14.50;99.90;;;;;;5537010;25;19933;-63
2024/04/08 06:42:31;;;;;;;;;;;14.50;99.90;;;;;;5538580;25;19927;-64
2024/04/08 06:44:58;;;;;;;;;;;14.50;99.90;;;;;;5542540;25;20388;-64
2024/04/08 06:47:27;;;;;;;;;;;14.50;99.90;;;;;;5533266;25;19927;-64
2024/04/08 06:49:54;;;;;;;;;;;14.50;99.90;;;;;;5538724;25;19933;-63
2024/04/08 06:52:21;;;;;;;;;;;14.50;99.90;;;;;;5537448;25;19927;-63
2024/04/08 06:54:48;;;;;;;;;;;14.50;99.90;;;;;;5541044;25;20593;-63
2024/04/08 06:57:15;;;;;;;;;;;14.50;99.90;;;;;;5534598;25;20143;-63
2024/04/08 06:59:42;;;;;;;;;;;14.40;99.90;;;;;;5534634;25;19926;-63
2024/04/08 07:02:09;;;;;;;;;;;14.50;99.90;;;;;;5521104;25;19941;-63
2024/04/08 07:04:36;;;;;;;;;;;14.50;99.90;;;;;;5536249;25;19934;-63
2024/04/08 07:07:03;;;;;;;;;;;14.50;99.90;;;;;;5533852;25;19928;-64
2024/04/08 07:09:29;;;;;;;;;;;14.50;99.90;;;;;;5539816;25;20390;-64
2024/04/08 07:11:57;;;;;;;;;;;14.40;99.90;;;;;;5534931;25;19935;-63
2024/04/08 07:14:25;;;;;;;;;;;14.50;99.90;;;;;;5540152;25;20594;-63
2024/04/08 07:16:51;;;;;;;;;;;14.50;99.90;;;;;;5534450;25;20365;-63
2024/04/08 07:19:19;;;;;;;;;;;14.50;99.90;;;;;;5537818;25;19927;-63
2024/04/08 07:21:46;;;;;;;;;;;14.50;99.90;;;;;;5536539;25;20249;-64
2024/04/08 07:24:13;;;;;;;;;;;14.50;99.90;;;;;;5534320;25;19933;-62
2024/04/08 07:26:40;;;;;;;;;;;14.50;99.90;;;;;;5536428;25;19927;-63
2024/04/08 07:29:07;;;;;;;;;;;14.50;99.90;;;;;;5527399;25;20044;-63
2024/04/08 07:31:34;;;;;;;;;;;14.50;99.90;;;;;;5518875;25;20369;-63
2024/04/08 07:34:01;;;;;;;;;;;14.40;99.90;;;;;;5505324;25;19939;-63
2024/04/08 07:36:27;;;;;;;;;;;14.40;99.90;;;;;;5532339;25;19934;-63
2024/04/08 07:38:54;;;;;;;;;;;14.50;99.90;;;;;;5537866;25;19926;-63
2024/04/08 07:41:21;;;;;;;;;;;14.40;99.90;;;;;;5534234;25;19926;-63
2024/04/08 07:43:48;;;;;;;;;;;14.50;99.90;;;;;;5516860;25;19941;-63
2024/04/08 07:46:15;;;;;;;;;;;14.50;99.90;;;;;;5525063;25;19934;-63
2024/04/08 07:48:44;;;;;;;;;;;14.50;99.90;;;;;;5531998;25;20336;-63
2024/04/08 07:51:11;;;;;;;;;;;14.60;99.90;;;;;;5531185;25;19927;-63
2024/04/08 07:53:38;;;;;;;;;;;14.70;99.90;;;;;;5537789;25;19927;-63
2024/04/08 07:56:05;;;;;;;;;;;14.70;99.90;;;;;;5531125;25;19937;-63
2024/04/08 07:58:33;;;;;;;;;;;14.80;99.90;;;;;;5539039;25;20265;-64
2024/04/08 08:01:00;;;;;;;;;;;14.80;99.90;;;;;;5504771;25;19933;-63
2024/04/08 08:03:27;;;;;;;;;;;14.80;99.90;;;;;;5534808;25;19927;-63
2024/04/08 08:05:54;;;;;;;;;;;14.90;99.90;;;;;;5540090;25;19927;-64
2024/04/08 08:08:22;;;;;;;;;;;15.00;99.90;;;;;;5541489;25;19935;-64
2024/04/08 08:10:49;;;;;;;;;;;15.10;99.90;;;;;;5534518;25;19941;-63
2024/04/08 08:13:16;;;;;;;;;;;15.10;99.90;;;;;;5540040;25;19933;-63
2024/04/08 08:15:42;;;;;;;;;;;15.10;99.90;;;;;;5538947;25;19945;-63
2024/04/08 08:18:09;;;;;;;;;;;15.20;99.90;;;;;;5540789;25;19926;-63
2024/04/08 08:20:38;;;;;;;;;;;15.30;99.90;;;;;;5537716;25;19927;-63
2024/04/08 08:23:05;;;;;;;;;;;15.30;99.90;;;;;;5542926;25;20255;-65
2024/04/08 08:25:35;;;;;;;;;;;15.30;99.90;;;;;;5544087;25;19941;-64
2024/04/08 08:28:02;;;;;;;;;;;15.40;99.90;;;;;;5540372;25;19933;-64
2024/04/08 08:30:29;;;;;;;;;;;15.50;99.90;;;;;;5538562;25;20785;-64
2024/04/08 08:32:56;;;;;;;;;;;15.60;99.90;;;;;;5536507;25;19927;-65
2024/04/08 08:35:23;;;;;;;;;;;15.70;99.90;;;;;;5538742;25;20241;-64
2024/04/08 08:37:50;;;;;;;;;;;15.70;99.90;;;;;;5538650;25;19936;-64
2024/04/08 08:40:17;;;;;;;;;;;15.80;99.90;;;;;;5536560;25;20370;-64
2024/04/08 08:42:44;;;;;;;;;;;15.80;99.90;;;;;;5541783;25;20269;-64
2024/04/08 08:45:12;;;;;;;;;;;15.90;99.90;;;;;;5537152;25;19937;-64
2024/04/08 08:47:39;;;;;;;;;;;15.90;99.90;;;;;;5539676;25;20391;-64
2024/04/08 08:50:07;;;;;;;;;;;16.00;99.90;;;;;;5539104;25;19933;-64
2024/04/08 08:52:34;;;;;;;;;;;16.00;99.90;;;;;;5538232;25;19934;-63
2024/04/08 08:55:02;;;;;;;;;;;16.10;99.90;;;;;;5541662;25;19927;-63
2024/04/08 08:57:30;;;;;;;;;;;16.20;99.90;;;;;;5541684;25;19935;-64
2024/04/08 09:00:03;;;;;;;;;;;16.20;99.90;;;;;;5536843;25;19927;-64
2024/04/08 09:02:30;;;;;;;;;;;16.40;99.90;;;;;;5537329;25;19926;-63
2024/04/08 09:04:57;;;;;;;;;;;16.60;99.90;;;;;;5541560;25;19934;-65
2024/04/08 09:07:24;;;;;;;;;;;16.70;99.90;;;;;;5539707;25;20140;-64
2024/04/08 09:09:54;;;;;;;;;;;16.90;99.90;;;;;;5536744;25;20830;-64
2024/04/08 09:12:22;;;;;;;;;;;17.10;99.90;;;;;;5543833;25;19933;-63
2024/04/08 09:14:49;;;;;;;;;;;17.40;99.90;;;;;;5538695;25;20776;-64
2024/04/08 09:17:17;;;;;;;;;;;17.60;99.90;;;;;;5541697;25;19934;-64
2024/04/08 09:19:44;;;;;;;;;;;17.60;99.90;;;;;;5537753;25;20294;-63
2024/04/08 09:22:13;;;;;;;;;;;17.80;99.90;;;;;;5461185;26;19942;-63
2024/04/08 09:24:43;;;;;;;;;;;17.80;99.90;;;;;;5462178;26;20058;-63
2024/04/08 09:27:10;;;;;;;;;;;17.80;99.90;;;;;;5463781;26;19937;-64
2024/04/08 09:29:38;;;;;;;;;;;17.80;99.90;;;;;;5465620;26;19927;-63
2024/04/08 09:32:08;;;;;;;;;;;17.90;99.90;;;;;;5462876;26;20340;-64
2024/04/08 09:34:34;;;;;;;;;;;18.00;99.90;;;;;;5464188;26;19929;-64
2024/04/08 09:37:03;;;;;;;;;;;18.10;99.90;;;;;;5464967;26;19928;-64
2024/04/08 09:39:31;;;;;;;;;;;18.00;99.90;;;;;;5466446;25;19928;-64
2024/04/08 09:41:59;;;;;;;;;;;18.00;99.90;;;;;;5542977;25;20638;-64
2024/04/08 09:44:30;;;;;;;;;;;18.10;99.90;;;;;;5539511;25;20408;-65
2024/04/08 09:47:00;;;;;;;;;;;18.00;99.90;;;;;;5540945;25;19933;-64
2024/04/08 09:49:27;;;;;;;;;;;18.10;99.90;;;;;;5538437;25;19927;-64
2024/04/08 09:51:57;;;;;;;;;;;18.50;99.90;;;;;;5536450;25;19927;-64
2024/04/08 09:54:24;;;;;;;;;;;18.40;99.90;;;;;;5538509;25;19926;-64
2024/04/08 09:56:53;;;;;;;;;;;18.60;99.90;;;;;;5537086;25;19933;-64
2024/04/08 09:59:20;;;;;;;;;;;18.80;99.90;;;;;;5541566;25;20269;-64
2024/04/08 10:01:47;;;;;;;;;;;18.90;99.90;;;;;;5539873;25;19950;-64
2024/04/08 10:04:18;;;;;;;;;;;19.10;99.90;;;;;;5542729;25;19927;-64
2024/04/08 10:06:49;;;;;;;;;;;19.20;99.90;;;;;;5538339;25;19926;-63
2024/04/08 10:09:20;;;;;;;;;;;19.40;99.90;;;;;;5538706;25;19927;-63
2024/04/08 10:11:51;;;;;;;;;;;19.50;99.90;;;;;;5539832;25;20790;-63
2024/04/08 10:14:18;;;;;;;;;;;19.60;99.90;;;;;;5540659;25;19927;-64
2024/04/08 10:16:49;;;;;;;;;;;19.80;99.90;;;;;;5532561;25;19927;-64
2024/04/08 10:19:19;;;;;;;;;;;19.80;99.90;;;;;;5542152;25;20274;-64
2024/04/08 10:21:46;;;;;;;;;;;20.00;99.90;;;;;;5538291;25;19927;-64
2024/04/08 10:24:27;;;;;;;;;;;20.10;99.90;;;;;;5536211;25;19934;-64
2024/04/08 10:27:03;;;;;;;;;;;20.10;99.90;;;;;;5538064;25;20341;-63
2024/04/08 10:29:35;;;;;;;;;;;20.20;99.90;;;;;;5504176;25;19927;-63
2024/04/08 10:32:03;;;;;;;;;;;20.50;99.90;;;;;;5535558;25;19927;-64
2024/04/08 10:34:30;;;;;;;;;;;20.40;99.90;;;;;;5537933;25;19927;-63
2024/04/08 10:36:57;;;;;;;;;;;20.30;99.90;;;;;;5540859;25;19931;-64
2024/04/08 10:39:27;;;;;;;;;;;20.00;99.90;;;;;;5537574;25;19927;-64
2024/04/08 10:41:58;;;;;;;;;;;20.00;99.90;;;;;;5539718;25;19933;-63
2024/04/08 10:44:26;;;;;;;;;;;20.10;99.90;;;;;;5535714;25;19927;-63
2024/04/08 10:46:53;;;;;;;;;;;20.00;99.90;;;;;;5540071;25;19927;-65
2024/04/08 10:49:21;;;;;;;;;;;20.00;99.90;;;;;;5536035;25;19928;-63
2024/04/08 10:51:50;;;;;;;;;;;20.10;99.90;;;;;;5540923;25;19927;-63
2024/04/08 10:54:18;;;;;;;;;;;20.20;99.90;;;;;;5536188;25;19933;-64
2024/04/08 10:56:44;;;;;;;;;;;20.40;99.90;;;;;;5538519;25;19927;-64
2024/04/08 10:59:11;;;;;;;;;;;20.30;99.90;;;;;;5533248;25;20608;-67
2024/04/08 11:01:38;;;;;;;;;;;20.20;99.90;;;;;;5540319;25;19926;-63
2024/04/08 11:04:05;;;;;;;;;;;20.30;99.90;;;;;;5536566;25;19927;-64
2024/04/08 11:06:33;;;;;;;;;;;20.40;99.90;;;;;;5541740;25;19933;-63
2024/04/08 11:09:00;;;;;;;;;;;20.50;99.90;;;;;;5540717;25;20293;-63
2024/04/08 11:11:27;;;;;;;;;;;20.30;99.90;;;;;;5540069;25;19927;-64
2024/04/08 11:13:53;;;;;;;;;;;20.30;99.90;;;;;;5536836;25;19927;-64
2024/04/08 11:16:20;;;;;;;;;;;20.40;99.90;;;;;;5540485;25;20222;-64
2024/04/08 11:18:47;;;;;;;;;;;20.30;99.90;;;;;;5537791;25;19933;-64
2024/04/08 11:21:14;;;;;;;;;;;20.40;99.90;;;;;;5537907;25;19933;-63
2024/04/08 11:23:41;;;;;;;;;;;20.70;99.90;;;;;;5539873;25;19926;-63
2024/04/08 11:26:09;;;;;;;;;;;21.00;99.90;;;;;;5444470;25;19942;-64
2024/04/08 11:28:37;;;;;;;;;;;21.40;99.90;;;;;;5542059;25;20369;-64
2024/04/08 11:31:04;;;;;;;;;;;21.40;99.90;;;;;;5533344;25;19950;-64
2024/04/08 11:33:31;;;;;;;;;;;21.20;99.90;;;;;;5535326;25;19927;-64
2024/04/08 11:35:58;;;;;;;;;;;21.30;99.90;;;;;;5522025;25;19951;-64
2024/04/08 11:38:25;;;;;;;;;;;21.10;99.90;;;;;;5531058;25;19933;-64
2024/04/08 11:40:54;;;;;;;;;;;20.90;99.90;;;;;;5534799;25;19927;-64
2024/04/08 11:43:21;;;;;;;;;;;21.10;99.90;;;;;;5537835;25;19933;-64
2024/04/08 11:45:48;;;;;;;;;;;20.80;99.90;;;;;;5543363;25;19927;-64
2024/04/08 11:48:16;;;;;;;;;;;21.20;99.90;;;;;;5542152;25;20003;-64
2024/04/08 11:50:43;;;;;;;;;;;21.20;99.90;;;;;;5539835;25;19934;-64
2024/04/08 11:53:10;;;;;;;;;;;21.00;99.90;;;;;;5508927;25;19927;-64
2024/04/08 11:55:38;;;;;;;;;;;21.00;99.90;;;;;;5541178;25;19927;-64
2024/04/08 11:58:07;;;;;;;;;;;20.90;99.90;;;;;;5544684;25;20265;-63
2024/04/08 12:00:33;;;;;;;;;;;20.80;99.90;;;;;;5540203;25;20273;-64
2024/04/08 12:03:00;;;;;;;;;;;20.70;99.90;;;;;;5539853;25;19933;-63
2024/04/08 12:05:27;;;;;;;;;;;20.60;99.90;;;;;;5538298;25;19927;-63
2024/04/08 12:07:55;;;;;;;;;;;20.60;99.90;;;;;;5536567;25;19927;-63
2024/04/08 12:10:22;;;;;;;;;;;20.60;99.90;;;;;;5531954;25;19933;-64
2024/04/08 12:12:49;;;;;;;;;;;20.60;99.90;;;;;;5533199;25;20402;-64
2024/04/08 12:15:19;;;;;;;;;;;20.80;99.90;;;;;;5534841;25;19935;-64
2024/04/08 12:17:48;;;;;;;;;;;20.70;99.90;;;;;;5536961;25;19934;-64
2024/04/08 12:20:15;;;;;;;;;;;20.60;99.90;;;;;;5537528;25;19934;-64
2024/04/08 12:22:42;;;;;;;;;;;20.40;99.90;;;;;;5540197;25;20366;-63
2024/04/08 12:25:09;;;;;;;;;;;20.30;99.90;;;;;;5537715;25;19942;-63
2024/04/08 12:27:37;;;;;;;;;;;20.30;99.90;;;;;;5506993;25;19933;-64
2024/04/08 12:30:04;;;;;;;;;;;20.20;99.90;;;;;;5541281;25;20578;-63
2024/04/08 12:32:31;;;;;;;;;;;20.00;99.90;;;;;;5536084;25;19942;-63
2024/04/08 12:34:58;;;;;;;;;;;20.00;99.90;;;;;;5526267;25;19933;-64
2024/04/08 12:37:25;;;;;;;;;;;20.00;99.90;;;;;;5540660;25;20353;-64
2024/04/08 12:39:52;;;;;;;;;;;19.90;99.90;;;;;;5535311;25;19927;-63
2024/04/08 12:42:19;;;;;;;;;;;19.90;99.90;;;;;;5534942;25;19927;-63
2024/04/08 12:44:46;;;;;;;;;;;19.80;99.90;;;;;;5534733;25;20261;-64
2024/04/08 12:47:13;;;;;;;;;;;19.60;99.90;;;;;;5530072;25;19927;-64
2024/04/08 12:49:40;;;;;;;;;;;19.60;99.90;;;;;;5527019;25;20366;-64
2024/04/08 12:52:07;;;;;;;;;;;19.40;99.90;;;;;;5532948;25;20456;-64
2024/04/08 12:54:34;;;;;;;;;;;19.50;99.90;;;;;;5535218;25;19927;-64
2024/04/08 12:57:04;;;;;;;;;;;19.50;99.90;;;;;;5538014;25;19935;-63
2024/04/08 12:59:31;;;;;;;;;;;19.50;99.90;;;;;;5530089;25;20355;-63
2024/04/08 13:01:58;;;;;;;;;;;19.50;99.90;;;;;;5530262;25;19928;-64
2024/04/08 13:04:25;;;;;;;;;;;19.50;99.90;;;;;;5532388;25;19927;-66
2024/04/08 13:06:52;;;;;;;;;;;19.40;99.90;;;;;;5531973;25;20136;-63
2024/04/08 13:09:19;;;;;;;;;;;19.40;99.90;;;;;;5531938;25;19927;-64
2024/04/08 13:11:46;;;;;;;;;;;19.40;99.90;;;;;;5527260;25;20270;-64
2024/04/08 13:14:13;;;;;;;;;;;19.40;99.90;;;;;;5530012;25;20467;-64
2024/04/08 13:16:39;;;;;;;;;;;19.30;99.90;;;;;;5526430;25;20275;-63
2024/04/08 13:19:06;;;;;;;;;;;19.20;99.90;;;;;;5530334;25;20258;-64
2024/04/08 13:21:33;;;;;;;;;;;19.30;99.90;;;;;;5531514;25;20003;-64
2024/04/08 13:24:00;;;;;;;;;;;19.20;99.90;;;;;;5538642;25;19927;-63
2024/04/08 13:26:27;;;;;;;;;;;19.20;99.90;;;;;;5540687;25;20483;-64
2024/04/08 13:28:55;;;;;;;;;;;19.20;99.90;;;;;;5538184;25;19934;-63
2024/04/08 13:31:22;;;;;;;;;;;19.20;99.90;;;;;;5540031;25;20361;-64
2024/04/08 13:33:49;;;;;;;;;;;19.10;99.90;;;;;;5536196;25;20675;-63
2024/04/08 13:36:16;;;;;;;;;;;19.10;99.90;;;;;;5536165;25;20281;-63
2024/04/08 13:38:42;;;;;;;;;;;19.10;99.90;;;;;;5530955;25;19935;-63
2024/04/08 13:41:09;;;;;;;;;;;19.00;99.90;;;;;;5526751;25;20391;-61
2024/04/08 13:43:36;;;;;;;;;;;19.00;99.90;;;;;;5466883;25;20519;-64
2024/04/08 13:46:03;;;;;;;;;;;18.90;99.90;;;;;;5519545;25;19953;-61
2024/04/08 13:48:30;;;;;;;;;;;18.90;99.90;;;;;;5520301;25;19927;-64
2024/04/08 13:50:58;;;;;;;;;;;19.00;99.90;;;;;;5520145;25;20046;-63
2024/04/08 13:53:26;;;;;;;;;;;18.90;99.90;;;;;;5516519;25;20288;-62
2024/04/08 13:55:53;;;;;;;;;;;18.90;99.90;;;;;;5534620;25;19933;-64
2024/04/08 13:58:20;;;;;;;;;;;18.90;99.90;;;;;;5540999;25;19927;-64
2024/04/08 14:00:47;;;;;;;;;;;18.90;99.90;;;;;;5537566;25;20384;-64
2024/04/08 14:03:14;;;;;;;;;;;18.80;99.90;;;;;;5538893;25;21121;-63
2024/04/08 14:05:41;;;;;;;;;;;18.90;99.90;;;;;;5534569;25;19927;-64
2024/04/08 14:08:08;;;;;;;;;;;18.90;99.90;;;;;;5540096;25;19927;-64
2024/04/08 14:10:36;;;;;;;;;;;18.90;99.90;;;;;;5537746;25;19927;-62
2024/04/08 14:13:02;;;;;;;;;;;18.90;99.90;;;;;;5536075;25;19933;-64
2024/04/08 14:15:29;;;;;;;;;;;18.90;99.90;;;;;;5536089;25;19941;-63
2024/04/08 14:17:56;;;;;;;;;;;18.90;99.90;;;;;;5540784;25;20038;-64